N50WP EDMA-EDMA

Flight info

Callsign N50WP
Flight time 0h 27m
Altitude 7000
Route MIQ6F MIQ Z98 WLD DCT
Aircraft SF50/L-SBDFGRY/SB1

Departure

Time 2026-05-06 15:37
Airport Augsburg Airport (EDMA)

Arrival

Time 2026-05-06 16:05
Airport Augsburg Airport (EDMA)
Time Latitude Longitude Altitude Speed Heading
2026-05-06 15:26 48.42133 10.92419 1512 ft 0 kts 71°
2026-05-06 15:32 48.42190 10.92440 1512 ft 7 kts 342°
2026-05-06 15:32 48.42234 10.92420 1512 ft 6 kts 346°
2026-05-06 15:32 48.42270 10.92401 1512 ft 5 kts 345°
2026-05-06 15:32 48.42283 10.92396 1512 ft 0 kts 343°
2026-05-06 15:33 48.42284 10.92395 1512 ft 0 kts 342°
2026-05-06 15:33 48.42285 10.92395 1512 ft 0 kts 342°
2026-05-06 15:35 48.42304 10.92385 1512 ft 5 kts 340°
2026-05-06 15:36 48.42341 10.92368 1511 ft 3 kts 36°
2026-05-06 15:36 48.42345 10.92383 1511 ft 0 kts 76°
2026-05-06 15:36 48.42386 10.92578 1511 ft 53 kts 72°
2026-05-06 15:36 48.42574 10.93406 1526 ft 106 kts 74°
2026-05-06 15:37 48.42851 10.94533 1774 ft 120 kts 71°
2026-05-06 15:37 48.43102 10.95788 2148 ft 134 kts 71°
2026-05-06 15:37 48.43408 10.97157 2606 ft 143 kts 70°
2026-05-06 15:37 48.43729 10.98591 3109 ft 148 kts 66°
2026-05-06 15:38 48.44056 11.00057 3624 ft 151 kts 66°
2026-05-06 15:38 48.44381 11.01520 4228 ft 146 kts 66°
2026-05-06 15:38 48.44698 11.02947 4789 ft 144 kts 66°
2026-05-06 15:38 48.45011 11.04351 5298 ft 145 kts 66°
2026-05-06 15:39 48.45336 11.05809 5724 ft 154 kts 68°
2026-05-06 15:39 48.45683 11.07369 6120 ft 161 kts 69°
2026-05-06 15:39 48.46043 11.09010 6500 ft 168 kts 69°
2026-05-06 15:39 48.46421 11.10731 6751 ft 180 kts 69°
2026-05-06 15:40 48.46833 11.12616 6783 ft 200 kts 69°
2026-05-06 15:40 48.47281 11.14674 6791 ft 214 kts 69°
2026-05-06 15:40 48.47758 11.16866 6788 ft 226 kts 70°
2026-05-06 15:40 48.48262 11.19168 6791 ft 234 kts 70°
2026-05-06 15:41 48.48760 11.21456 6773 ft 230 kts 70°
2026-05-06 15:41 48.49256 11.23735 6769 ft 227 kts 70°
2026-05-06 15:41 48.49892 11.25866 6759 ft 222 kts 48°
2026-05-06 15:41 48.51117 11.27113 6770 ft 215 kts 16°
2026-05-06 15:42 48.52586 11.27224 6773 ft 210 kts 345°
2026-05-06 15:42 48.53833 11.26214 6774 ft 206 kts 315°
2026-05-06 15:42 48.54606 11.24415 6783 ft 204 kts 296°
2026-05-06 15:42 48.55205 11.22498 6771 ft 203 kts 295°
2026-05-06 15:43 48.55763 11.20546 6770 ft 202 kts 294°
2026-05-06 15:43 48.56317 11.18582 6769 ft 199 kts 292°
2026-05-06 15:43 48.56856 11.16714 6757 ft 193 kts 294°
2026-05-06 15:43 48.57383 11.14884 6771 ft 186 kts 294°
2026-05-06 15:44 48.57899 11.13111 6767 ft 183 kts 294°
2026-05-06 15:44 48.58242 11.11328 6765 ft 181 kts 268°
2026-05-06 15:44 48.57746 11.09574 6619 ft 186 kts 227°
2026-05-06 15:44 48.56597 11.08699 6384 ft 194 kts 189°
2026-05-06 15:45 48.55280 11.09121 6161 ft 200 kts 149°
2026-05-06 15:45 48.54229 11.10514 5929 ft 203 kts 132°
2026-05-06 15:45 48.53318 11.12144 5687 ft 205 kts 129°
2026-05-06 15:45 48.52426 11.13792 5441 ft 206 kts 130°
2026-05-06 15:46 48.51595 11.15549 5182 ft 209 kts 110°
2026-05-06 15:46 48.51545 11.17675 4959 ft 204 kts 70°
2026-05-06 15:46 48.52330 11.19326 4827 ft 189 kts 28°
2026-05-06 15:46 48.53490 11.19708 4973 ft 163 kts 346°
2026-05-06 15:47 48.54433 11.18863 5009 ft 160 kts 312°
2026-05-06 15:47 48.55161 11.17618 5010 ft 162 kts 311°
2026-05-06 15:47 48.55913 11.16333 5022 ft 164 kts 311°
2026-05-06 15:47 48.56687 11.15032 5021 ft 167 kts 312°
2026-05-06 15:48 48.57475 11.13736 5005 ft 169 kts 312°
2026-05-06 15:48 48.58185 11.12328 4996 ft 171 kts 292°
2026-05-06 15:48 48.58192 11.10527 4939 ft 180 kts 252°
2026-05-06 15:48 48.57365 11.09095 4814 ft 191 kts 212°
2026-05-06 15:49 48.56052 11.08754 4684 ft 202 kts 174°
2026-05-06 15:49 48.54762 11.09681 4557 ft 208 kts 144°
2026-05-06 15:49 48.53656 11.11072 4420 ft 210 kts 139°
2026-05-06 15:49 48.52548 11.12510 4271 ft 208 kts 142°
2026-05-06 15:50 48.51432 11.13852 4124 ft 207 kts 142°
2026-05-06 15:50 48.50625 11.15616 4029 ft 205 kts 106°
2026-05-06 15:50 48.50588 11.17658 4013 ft 192 kts 69°
2026-05-06 15:50 48.51268 11.19273 4008 ft 177 kts 35°
2026-05-06 15:51 48.52335 11.19999 4001 ft 163 kts
2026-05-06 15:51 48.53404 11.19809 4002 ft 152 kts 335°
2026-05-06 15:51 48.54248 11.18917 4007 ft 149 kts 313°
2026-05-06 15:51 48.54997 11.17769 4011 ft 157 kts 312°
2026-05-06 15:52 48.55753 11.16531 4011 ft 163 kts 311°
2026-05-06 15:52 48.56526 11.15260 4008 ft 169 kts 311°
2026-05-06 15:52 48.57268 11.13845 3999 ft 174 kts 297°
2026-05-06 15:52 48.57571 11.12063 4000 ft 180 kts 274°
2026-05-06 15:53 48.57352 11.10201 4004 ft 185 kts 257°
2026-05-06 15:53 48.56966 11.08318 3999 ft 188 kts 255°
2026-05-06 15:53 48.56531 11.06438 4001 ft 190 kts 255°
2026-05-06 15:53 48.56101 11.04572 3998 ft 191 kts 255°
2026-05-06 15:54 48.55663 11.02660 4005 ft 192 kts 255°
2026-05-06 15:54 48.55235 11.00770 4005 ft 196 kts 255°
2026-05-06 15:54 48.54777 10.98724 4026 ft 216 kts 255°
2026-05-06 15:54 48.54275 10.96491 4022 ft 229 kts 254°
2026-05-06 15:55 48.53753 10.94178 4020 ft 234 kts 254°
2026-05-06 15:55 48.53237 10.91890 4013 ft 232 kts 254°
2026-05-06 15:55 48.52720 10.89598 4014 ft 230 kts 254°
2026-05-06 15:55 48.52203 10.87308 4010 ft 229 kts 254°
2026-05-06 15:56 48.51690 10.85036 4028 ft 227 kts 254°
2026-05-06 15:56 48.51182 10.82788 4025 ft 226 kts 254°
2026-05-06 15:56 48.50677 10.80552 4023 ft 225 kts 254°
2026-05-06 15:56 48.50180 10.78358 4025 ft 223 kts 254°
2026-05-06 15:57 48.49676 10.76124 4030 ft 223 kts 254°
2026-05-06 15:57 48.49181 10.73949 4020 ft 215 kts 254°
2026-05-06 15:57 48.48708 10.71873 4016 ft 201 kts 254°
2026-05-06 15:57 48.48272 10.69952 4030 ft 191 kts 255°
2026-05-06 15:58 48.47847 10.68084 4014 ft 184 kts 255°
2026-05-06 15:58 48.47443 10.66310 4028 ft 177 kts 255°
2026-05-06 15:58 48.47001 10.64604 4015 ft 173 kts 246°
2026-05-06 15:58 48.46246 10.63217 4020 ft 172 kts 225°
2026-05-06 15:59 48.45200 10.62383 4026 ft 174 kts 202°
2026-05-06 15:59 48.43983 10.62282 4027 ft 179 kts 176°
2026-05-06 15:59 48.42781 10.62785 4035 ft 178 kts 169°
2026-05-06 15:59 48.41607 10.63374 4035 ft 176 kts 167°
2026-05-06 16:00 48.40455 10.63985 4038 ft 174 kts 167°
2026-05-06 16:00 48.39310 10.64584 4024 ft 173 kts 167°
2026-05-06 16:00 48.38251 10.65434 4024 ft 177 kts 145°
2026-05-06 16:00 48.37480 10.66890 4038 ft 180 kts 118°
2026-05-06 16:01 48.37185 10.68731 3939 ft 186 kts 88°
2026-05-06 16:01 48.37443 10.70627 3784 ft 191 kts 69°
2026-05-06 16:01 48.37885 10.72568 3628 ft 198 kts 67°
2026-05-06 16:01 48.38348 10.74513 3546 ft 198 kts 68°
2026-05-06 16:02 48.38788 10.76459 3529 ft 195 kts 68°
2026-05-06 16:02 48.39211 10.78349 3431 ft 190 kts 68°
2026-05-06 16:02 48.39633 10.80257 3203 ft 193 kts 68°
2026-05-06 16:02 48.40057 10.82161 2890 ft 188 kts 69°
2026-05-06 16:03 48.40424 10.83811 2814 ft 149 kts 68°
2026-05-06 16:03 48.40771 10.85364 2548 ft 156 kts 72°
2026-05-06 16:03 48.41088 10.86899 2380 ft 148 kts 68°
2026-05-06 16:03 48.41431 10.88344 2159 ft 140 kts 71°
2026-05-06 16:04 48.41719 10.89560 2063 ft 113 kts 72°
2026-05-06 16:04 48.41949 10.90642 1858 ft 106 kts 73°
2026-05-06 16:04 48.42187 10.91686 1631 ft 103 kts 74°
2026-05-06 16:04 48.42406 10.92659 1514 ft 89 kts 74°
2026-05-06 16:05 48.42569 10.93391 1514 ft 38 kts 71°
2026-05-06 16:05 48.42594 10.93500 1513 ft 13 kts 70°
2026-05-06 16:05 48.42606 10.93595 1513 ft 3 kts 115°
2026-05-06 16:05 48.42582 10.93627 1513 ft 5 kts 152°
2026-05-06 16:06 48.42558 10.93639 1514 ft 0 kts 201°
2026-05-06 16:06 48.42558 10.93638 1514 ft 0 kts 220°
2026-05-06 16:06 48.42553 10.93627 1514 ft 4 kts 246°
2026-05-06 16:07 48.42531 10.93521 1514 ft 13 kts 252°
2026-05-06 16:07 48.42491 10.93346 1515 ft 18 kts 251°
2026-05-06 16:07 48.42451 10.93162 1515 ft 17 kts 253°
2026-05-06 16:07 48.42413 10.92991 1513 ft 15 kts 252°
2026-05-06 16:08 48.42380 10.92845 1512 ft 14 kts 251°
2026-05-06 16:08 48.42347 10.92697 1512 ft 14 kts 251°
2026-05-06 16:08 48.42321 10.92579 1512 ft 10 kts 252°
2026-05-06 16:08 48.42299 10.92483 1512 ft 8 kts 251°
2026-05-06 16:09 48.42278 10.92402 1512 ft 6 kts 216°
2026-05-06 16:09 48.42231 10.92419 1512 ft 6 kts 158°
2026-05-06 16:09 48.42179 10.92443 1512 ft 7 kts 160°
2026-05-06 16:09 48.42150 10.92448 1512 ft 1 kts 250°
2026-05-06 16:10 48.42157 10.92410 1512 ft 4 kts 249°
2026-05-06 16:10 48.42145 10.92404 1512 ft 0 kts 76°
2026-05-06 16:10 48.42147 10.92411 1512 ft 0 kts 73°